Time;durP1;ratioP1;P1;durP2;ratioP2;P2;SDS_P1;SDS_P2;PMS_P1;PMS_P2;Temp;Humidity;BMP_temperature;BMP_pressure;BME280_temperature;BME280_humidity;BME280_pressure;Samples;Min_cycle;Max_cycle;Signal;HPM_P1;HPM_P2
2023/02/21 02:14:13;;;;;;;57.72;32.95;;;10.80;99.90;;;10.99;100.00;101931.91;5032577;28;20037;-69
2023/02/21 02:16:48;;;;;;;61.28;34.35;;;10.80;99.90;;;10.88;100.00;101922.94;5031232;28;20119;-68
2023/02/21 02:19:51;;;;;;;61.45;35.75;;;10.70;99.90;;;10.87;100.00;101929.13;5032407;28;20088;-68
2023/02/21 02:22:58;;;;;;;62.03;34.70;;;10.60;99.90;;;10.92;100.00;101927.41;5031198;28;20067;-68
2023/02/21 02:25:49;;;;;;;72.00;36.95;;;10.60;99.90;;;10.79;100.00;101922.84;5031188;28;20077;-68
2023/02/21 02:28:52;;;;;;;65.70;37.22;;;10.60;99.90;;;10.78;100.00;101923.75;5031108;28;20420;-68
2023/02/21 02:31:47;;;;;;;69.22;38.28;;;10.50;99.90;;;10.76;100.00;101914.88;5031133;28;20493;-68
2023/02/21 02:34:47;;;;;;;73.90;38.88;;;10.50;99.90;;;10.73;100.00;101907.78;5032159;28;20044;-68
2023/02/21 02:37:23;;;;;;;71.65;40.60;;;10.50;99.90;;;10.72;100.00;101906.00;5032251;28;20049;-69
2023/02/21 02:40:01;;;;;;;72.13;39.60;;;10.40;99.90;;;10.65;100.00;101896.22;5032163;28;20054;-68
2023/02/21 02:42:47;;;;;;;75.85;41.17;;;10.40;99.90;;;10.63;100.00;101897.97;5031927;28;20050;-68
2023/02/21 02:45:23;;;;;;;79.40;41.30;;;10.40;99.90;;;10.61;100.00;101898.81;5030065;28;20076;-68
2023/02/21 02:47:59;;;;;;;73.85;39.13;;;10.40;99.90;;;10.64;100.00;101896.22;5032035;28;20045;-68
2023/02/21 02:50:32;;;;;;;70.47;39.83;;;10.40;99.90;;;10.49;100.00;101856.38;5030850;28;20073;-68
2023/02/21 02:53:03;;;;;;;82.40;41.33;;;10.40;99.90;;;10.54;100.00;101866.13;5030518;28;20060;-68
2023/02/21 02:55:40;;;;;;;74.75;41.92;;;10.40;99.90;;;10.69;100.00;101897.16;5030779;28;20049;-68
2023/02/21 02:58:11;;;;;;;76.38;40.72;;;10.40;99.90;;;10.64;100.00;101896.22;5030743;28;20045;-68
2023/02/21 03:00:45;;;;;;;73.70;41.15;;;10.40;99.90;;;10.69;100.00;101887.47;5031985;28;20397;-68
2023/02/21 03:03:33;;;;;;;79.90;40.88;;;10.40;99.90;;;10.70;100.00;101893.66;5031860;28;20457;-68
2023/02/21 03:06:21;;;;;;;77.55;40.95;;;10.50;99.90;;;10.74;100.00;101896.31;5030884;28;20064;-68
2023/02/21 03:09:00;;;;;;;72.25;40.45;;;10.50;99.90;;;10.75;100.00;101898.13;5030566;28;20049;-69
2023/02/21 03:11:30;;;;;;;69.20;39.60;;;10.50;99.90;;;10.76;100.00;101894.59;5030711;28;20049;-69
2023/02/21 03:14:07;;;;;;;74.03;40.42;;;10.50;99.90;;;10.84;100.00;101887.63;5030282;28;20046;-68
2023/02/21 03:16:40;;;;;;;65.28;39.97;;;10.60;99.90;;;10.80;100.00;101892.88;5030587;28;20048;-68
2023/02/21 03:19:12;;;;;;;74.13;40.63;;;10.50;99.90;;;10.78;100.00;101882.25;5031758;28;20040;-69
2023/02/21 03:21:47;;;;;;;76.05;41.00;;;10.50;99.90;;;10.78;100.00;101878.75;5030399;28;20060;-69
2023/02/21 03:24:18;;;;;;;80.97;40.25;;;10.50;99.90;;;10.84;100.00;101886.72;5031729;28;20121;-69
2023/02/21 03:26:51;;;;;;;78.85;41.35;;;10.60;99.90;;;10.79;100.00;101884.06;5030198;28;20054;-68
2023/02/21 03:29:43;;;;;;;67.78;41.08;;;10.60;99.90;;;10.92;100.00;101892.13;5031340;28;20141;-68
2023/02/21 03:34:52;;;;;;;67.10;40.40;;;10.60;99.90;;;10.90;100.00;101882.41;5030584;28;20041;-68
2023/02/21 03:37:33;;;;;;;81.53;41.92;;;10.70;99.90;;;10.90;100.00;101874.47;5030809;28;20076;-69
2023/02/21 03:40:03;;;;;;;76.07;42.40;;;10.60;99.90;;;10.85;100.00;101883.22;5030615;28;20497;-68
2023/02/21 03:42:34;;;;;;;76.57;42.45;;;10.60;99.90;;;10.88;100.00;101872.66;5030522;28;20051;-68
2023/02/21 03:45:02;;;;;;;80.60;43.50;;;10.60;99.90;;;10.85;100.00;101881.47;5030080;28;20056;-69
2023/02/21 03:47:31;;;;;;;72.03;42.55;;;10.60;99.90;;;10.85;100.00;101872.63;5030247;28;20060;-68
2023/02/21 03:50:00;;;;;;;75.65;42.28;;;10.60;99.90;;;10.93;100.00;101880.66;5030259;28;20050;-68
2023/02/21 03:52:29;;;;;;;76.10;43.42;;;10.60;99.90;;;10.87;100.00;101870.91;5030100;28;20492;-68
2023/02/21 03:54:58;;;;;;;73.22;43.60;;;10.60;99.90;;;10.86;100.00;101882.34;5031804;28;20104;-68
2023/02/21 03:57:26;;;;;;;80.78;43.83;;;10.60;99.90;;;10.85;100.00;101884.13;5033807;28;20052;-68
2023/02/21 03:59:55;;;;;;;81.57;43.53;;;10.60;99.90;;;10.81;100.00;101886.72;5033855;28;20049;-68
2023/02/21 04:02:24;;;;;;;79.72;43.75;;;10.50;99.90;;;10.85;100.00;101884.13;5033722;28;20045;-68
2023/02/21 04:04:53;;;;;;;74.55;42.85;;;10.50;99.90;;;10.93;100.00;101892.13;5033707;28;20047;-68
2023/02/21 04:07:23;;;;;;;74.00;42.88;;;10.60;99.90;;;10.90;100.00;101886.78;5033489;28;20076;-68
2023/02/21 04:09:53;;;;;;;70.70;41.30;;;10.60;99.90;;;10.82;100.00;101868.19;5034715;28;20048;-68
2023/02/21 04:12:31;;;;;;;73.72;43.42;;;10.60;99.90;;;10.88;100.00;101885.88;5033734;28;20411;-68
2023/02/21 04:14:59;;;;;;;77.45;41.60;;;10.70;99.90;;;10.83;100.00;101880.56;5033510;28;20144;-68
2023/02/21 04:17:28;;;;;;;74.97;41.95;;;10.60;99.90;;;10.79;100.00;101876.13;5033573;28;20666;-68
2023/02/21 04:19:58;;;;;;;77.40;41.92;;;10.50;99.90;;;10.82;100.00;101875.22;5033372;28;20049;-68
2023/02/21 04:22:27;;;;;;;71.03;42.05;;;10.60;99.90;;;10.77;100.00;101880.50;5033129;28;20140;-68
2023/02/21 04:24:57;;;;;;;70.13;41.38;;;10.50;99.90;;;10.81;100.00;101877.03;5033109;28;20049;-68
2023/02/21 04:27:26;;;;;;;;;;;10.50;99.90;;;10.82;100.00;101877.88;5033522;28;20528;-69
2023/02/21 04:29:57;;;;;;;75.65;41.88;;;10.50;99.90;;;10.86;100.00;101879.69;5033340;28;19924;-68
2023/02/21 04:32:25;;;;;;;74.53;42.25;;;10.50;99.90;;;10.87;100.00;101870.91;5033055;28;20119;-68
2023/02/21 04:34:54;;;;;;;72.78;41.38;;;10.60;99.90;;;10.87;100.00;101874.44;5032971;28;20049;-68
2023/02/21 04:37:23;;;;;;;69.20;41.65;;;10.60;99.90;;;10.92;100.00;101873.59;5032849;28;20055;-69
2023/02/21 04:39:52;;;;;;;73.65;42.33;;;10.60;99.90;;;10.97;100.00;101880.72;5033014;28;20495;-68
2023/02/21 04:42:22;;;;;;;66.88;41.20;;;10.70;99.90;;;11.03;100.00;101883.44;5032932;28;20056;-68
2023/02/21 04:44:50;;;;;;;72.13;41.72;;;10.70;99.90;;;11.04;100.00;101869.31;5034345;28;20072;-68
2023/02/21 04:47:28;;;;;;;68.57;41.13;;;10.70;99.90;;;10.96;100.00;101855.09;5032640;28;20060;-69
2023/02/21 04:49:57;;;;;;;68.78;42.15;;;10.70;99.90;;;11.00;100.00;101869.25;5033913;28;20531;-69
2023/02/21 04:52:26;;;;;;;63.65;39.50;;;10.70;99.90;;;11.06;100.00;101872.84;5033985;28;20107;-68
2023/02/21 04:54:54;;;;;;;60.78;39.05;;;10.80;99.90;;;11.05;100.00;101864.91;5034252;28;20034;-68
2023/02/21 04:57:24;;;;;;;66.43;41.25;;;10.70;99.90;;;11.08;100.00;101888.75;5034032;28;20041;-68
2023/02/21 04:59:58;;;;;;;68.53;41.70;;;10.80;99.90;;;11.05;100.00;101872.84;5033027;28;20084;-69
2023/02/21 05:02:27;;;;;;;66.13;40.42;;;10.70;99.90;;;11.10;100.00;101874.66;5033744;28;20050;-69
2023/02/21 05:04:55;;;;;;;65.35;40.95;;;10.80;99.90;;;11.01;100.00;101874.59;5033664;28;20037;-68
2023/02/21 05:07:24;;;;;;;66.10;41.00;;;10.80;99.90;;;10.99;100.00;101871.03;5032640;28;20057;-68
2023/02/21 05:09:52;;;;;;;64.03;40.70;;;10.70;99.90;;;10.94;100.00;101851.53;5033601;28;20034;-69
2023/02/21 05:12:21;;;;;;;63.20;41.45;;;10.70;99.90;;;10.93;100.00;101864.78;5033640;28;20068;-69
2023/02/21 05:14:50;;;;;;;67.05;41.10;;;10.70;99.90;;;10.98;100.00;101868.34;5033496;28;20144;-69
2023/02/21 05:17:19;;;;;;;71.93;41.27;;;10.70;99.90;;;11.04;100.00;101869.31;5033753;28;20045;-69
2023/02/21 05:19:47;;;;;;;70.10;41.05;;;10.70;99.90;;;11.12;100.00;101872.03;5033714;28;20295;-69
2023/02/21 05:22:19;;;;;;;66.38;41.28;;;10.80;99.90;;;11.08;100.00;101862.28;5032247;28;20145;-69
2023/02/21 05:24:48;;;;;;;63.17;41.28;;;10.80;99.90;;;10.97;100.00;101862.19;5032226;28;20049;-69
2023/02/21 05:27:18;;;;;;;64.93;41.78;;;10.80;99.90;;;11.12;100.00;101872.91;5033804;28;20416;-69
2023/02/21 05:29:48;;;;;;;74.18;42.63;;;10.80;99.90;;;11.11;100.00;101868.47;5033590;28;20120;-69
2023/02/21 05:32:20;;;;;;;71.57;41.97;;;10.80;99.90;;;11.12;100.00;101869.38;5033626;28;20055;-69
2023/02/21 05:34:49;;;;;;;71.03;43.05;;;10.80;99.90;;;11.10;100.00;101856.13;5033307;28;20400;-69
2023/02/21 05:37:19;;;;;;;68.45;41.20;;;10.80;99.90;;;11.15;100.00;101867.63;5033204;28;20053;-69
2023/02/21 05:39:48;;;;;;;;;;;10.80;99.90;;;11.18;100.00;101870.31;5033580;28;20044;-69
2023/02/21 05:42:17;;;;;;;68.68;40.78;;;10.90;99.90;;;11.24;100.00;101865.09;5033277;28;19928;-69
2023/02/21 05:44:46;;;;;;;67.63;40.70;;;10.90;99.90;;;10.44;100.00;101736.38;5033013;28;20050;-69
2023/02/21 05:47:15;;;;;;;65.88;40.95;;;10.90;99.90;;;11.02;100.00;101852.50;5031574;28;20045;-69
2023/02/21 05:49:45;;;;;;;67.43;39.72;;;10.70;99.90;;;10.85;100.00;101814.41;5032916;28;20162;-69
2023/02/21 05:52:16;;;;;;;71.35;39.38;;;10.80;99.90;;;11.13;100.00;101861.44;5033044;28;20052;-69
2023/02/21 05:54:45;;;;;;;65.00;40.58;;;10.80;99.90;;;11.17;100.00;101863.25;5031716;28;20073;-69
2023/02/21 05:57:13;;;;;;;71.70;41.83;;;10.80;99.90;;;11.18;100.00;101867.69;5033110;28;20065;-69
2023/02/21 05:59:42;;;;;;;68.15;41.50;;;10.90;99.90;;;11.08;100.00;101862.28;5032610;28;20042;-69
2023/02/21 06:02:10;;;;;;;63.33;38.80;;;10.80;99.90;;;11.18;100.00;101859.72;5032684;28;20514;-69
2023/02/21 06:04:39;;;;;;;68.03;40.22;;;10.90;99.90;;;11.20;100.00;101865.94;5032531;28;20041;-69
2023/02/21 06:07:08;;;;;;;69.20;40.33;;;10.90;99.90;;;11.19;100.00;101865.94;5031474;28;20067;-69
2023/02/21 06:09:37;;;;;;;67.63;39.83;;;10.90;99.90;;;11.18;100.00;101865.03;5032698;28;20140;-69
2023/02/21 06:12:05;;;;;;;67.32;41.15;;;10.90;99.90;;;11.14;100.00;101852.63;5031426;28;20041;-69
2023/02/21 06:14:34;;;;;;;64.13;38.85;;;10.90;99.90;;;11.14;100.00;101855.28;5032502;28;20053;-69
2023/02/21 06:17:02;;;;;;;59.55;39.85;;;10.90;99.90;;;11.08;100.00;101864.91;5032381;28;20045;-69
2023/02/21 06:19:30;;;;;;;67.50;40.47;;;10.80;99.90;;;11.08;100.00;101872.84;5032336;28;20051;-70
2023/02/21 06:22:00;;;;;;;69.30;40.85;;;10.80;99.90;;;11.15;100.00;101872.06;5032534;28;20091;-70
2023/02/21 06:24:30;;;;;;;64.30;39.22;;;10.80;99.90;;;11.14;100.00;101871.16;5032433;28;20514;-69
2023/02/21 06:26:58;;;;;;;62.58;38.08;;;10.80;99.90;;;11.13;100.00;101866.72;5032313;28;20073;-70
2023/02/21 06:29:27;;;;;;;67.10;40.53;;;10.90;99.90;;;11.21;100.00;101870.34;5032030;28;20447;-70
2023/02/21 06:31:57;;;;;;;65.28;39.45;;;10.90;99.90;;;11.20;100.00;101871.22;5032144;28;20149;-70
2023/02/21 06:34:26;;;;;;;66.55;39.88;;;10.90;99.90;;;11.21;100.00;101870.34;5032201;28;20045;-70
2023/02/21 06:36:55;;;;;;;66.28;40.88;;;10.90;99.90;;;11.23;100.00;101871.25;5032067;28;20041;-70
2023/02/21 06:39:23;;;;;;;62.70;38.55;;;11.00;99.90;;;11.28;100.00;101868.66;5032113;28;20076;-70
2023/02/21 06:41:53;;;;;;;64.05;38.70;;;11.00;99.90;;;11.25;100.00;101869.50;5030667;28;20575;-70
2023/02/21 06:44:22;;;;;;;67.65;39.35;;;11.00;99.90;;;11.19;100.00;101869.44;5032027;28;20046;-70
2023/02/21 06:46:50;;;;;;;59.20;37.92;;;10.90;99.90;;;11.18;100.00;101875.63;5031933;28;20389;-70
2023/02/21 06:49:19;;;;;;;62.08;40.88;;;10.90;99.90;;;11.16;100.00;101882.66;5031742;28;20399;-70
2023/02/21 06:51:47;;;;;;;66.82;38.70;;;10.90;99.90;;;11.18;100.00;101886.22;5031992;28;20099;-70
2023/02/21 06:54:16;;;;;;;67.03;39.40;;;10.90;99.90;;;11.18;100.00;101877.38;5031815;28;20392;-70
2023/02/21 06:56:44;;;;;;;58.88;38.42;;;10.90;99.90;;;11.20;100.00;101871.22;5032080;28;20049;-70
2023/02/21 06:59:14;;;;;;;64.40;39.15;;;10.90;99.90;;;11.22;100.00;101868.59;5031798;28;20049;-70
2023/02/21 07:01:43;;;;;;;70.05;38.85;;;10.90;99.90;;;11.22;100.00;101869.47;5031827;28;20137;-70
2023/02/21 07:04:12;;;;;;;59.30;38.53;;;10.90;99.90;;;11.29;100.00;101881.91;5031652;28;20041;-69
2023/02/21 07:06:42;;;;;;;59.05;37.88;;;11.00;99.90;;;11.27;100.00;101867.75;5030606;28;20047;-72
2023/02/21 07:09:11;;;;;;;58.08;37.05;;;11.00;99.90;;;11.34;100.00;101880.16;5031548;28;20140;-68
2023/02/21 07:11:39;;;;;;;67.68;37.80;;;11.00;99.90;;;11.33;100.00;101874.84;5031487;28;20459;-67
2023/02/21 07:14:08;;;;;;;57.05;37.67;;;11.00;99.90;;;11.38;100.00;101868.72;5031679;28;20129;-69
2023/02/21 07:16:38;;;;;;;56.97;37.42;;;11.10;99.90;;;11.44;100.00;101876.72;5030402;28;20045;-70
2023/02/21 07:19:06;;;;;;;57.75;35.53;;;11.10;99.90;;;11.43;100.00;101874.97;5030479;28;20520;-67
2023/02/21 07:21:35;;;;;;;60.83;36.35;;;11.10;99.90;;;11.47;100.00;101876.75;5031463;28;20045;-67
2023/02/21 07:24:03;;;;;;;51.05;35.22;;;11.20;99.90;;;11.55;100.00;101882.13;5031536;28;20053;-70
2023/02/21 07:26:32;;;;;;;56.55;34.70;;;11.30;99.90;;;11.59;100.00;101884.78;5031551;28;20045;-69
2023/02/21 07:29:00;;;;;;;53.92;35.08;;;11.30;99.90;;;11.52;100.00;101880.31;5031820;28;20575;-69
2023/02/21 07:31:29;;;;;;;53.00;34.83;;;11.30;99.90;;;11.51;100.00;101865.31;5034518;28;20041;-69
2023/02/21 07:33:58;;;;;;;55.17;35.13;;;11.20;99.90;;;11.57;100.00;101869.78;5035454;28;20132;-70
2023/02/21 07:36:27;;;;;;;53.33;34.90;;;11.30;99.90;;;11.54;100.00;101878.56;5035453;28;20041;-68
2023/02/21 07:38:55;;;;;;;53.10;33.95;;;11.20;99.90;;;11.59;100.00;101892.72;5035430;28;20503;-69
2023/02/21 07:41:23;;;;;;;55.35;34.38;;;11.30;99.90;;;11.60;100.00;101890.97;5035127;28;20461;-68
2023/02/21 07:43:52;;;;;;;53.05;33.92;;;11.30;99.90;;;11.65;100.00;101881.31;5035045;28;20041;-68
2023/02/21 07:46:20;;;;;;;54.50;34.47;;;11.40;99.90;;;11.60;100.00;101889.22;5035066;28;20463;-68
2023/02/21 07:48:48;;;;;;;51.35;33.65;;;11.30;99.90;;;11.61;100.00;101890.97;5035056;28;20041;-69
2023/02/21 07:51:18;;;;;;;51.92;32.38;;;11.30;99.90;;;11.62;100.00;101895.44;5034965;28;20045;-69
2023/02/21 07:53:46;;;;;;;52.70;32.00;;;11.30;99.90;;;11.64;100.00;101888.38;5035238;28;20129;-68
2023/02/21 07:56:15;;;;;;;49.08;30.67;;;11.40;99.90;;;11.62;100.00;101889.22;5034915;28;20045;-68
2023/02/21 07:58:43;;;;;;;51.47;33.85;;;11.40;99.90;;;11.62;100.00;101881.28;5034946;28;20037;-69
2023/02/21 08:01:12;;;;;;;52.30;33.55;;;11.40;99.90;;;11.55;100.00;101890.06;5035051;28;20052;-69
2023/02/21 08:03:41;;;;;;;49.33;32.55;;;11.30;99.90;;;11.63;100.00;101883.94;5034739;28;20049;-69
2023/02/21 08:06:11;;;;;;;49.42;33.50;;;11.30;99.90;;;11.59;100.00;101891.88;5034782;28;20049;-69
2023/02/21 08:08:41;;;;;;;53.30;32.78;;;11.30;99.90;;;11.56;100.00;101887.41;5035225;28;20045;-69
2023/02/21 08:11:09;;;;;;;57.10;34.13;;;11.30;99.90;;;11.54;100.00;101881.22;5034756;28;20069;-68
2023/02/21 08:13:37;;;;;;;54.70;34.63;;;11.30;99.90;;;11.47;100.00;101882.06;5034697;28;20045;-69
2023/02/21 08:16:06;;;;;;;54.20;35.33;;;11.30;99.90;;;11.57;100.00;101894.53;5034673;28;20045;-68
2023/02/21 08:18:35;;;;;;;54.55;35.15;;;11.30;99.90;;;11.57;100.00;101885.66;5034514;28;20091;-69
2023/02/21 08:21:04;;;;;;;55.45;34.47;;;11.30;99.90;;;11.67;100.00;101895.50;5034904;28;20447;-69
2023/02/21 08:23:32;;;;;;;60.20;35.78;;;11.40;99.90;;;11.57;100.00;101894.53;5034572;28;20041;-68
2023/02/21 08:26:03;;;;;;;61.80;36.55;;;11.30;99.90;;;11.59;100.00;101891.88;5032997;28;20060;-68
2023/02/21 08:28:32;;;;;;;56.53;35.97;;;11.30;99.90;;;11.63;100.00;101891.03;5034498;28;20056;-68
2023/02/21 08:31:00;;;;;;;61.70;38.30;;;11.30;99.90;;;11.58;100.00;101890.06;5034256;28;20060;-68
2023/02/21 08:33:28;;;;;;;69.40;38.47;;;11.30;99.90;;;11.59;100.00;101898.03;5033372;28;20534;-69
2023/02/21 08:35:58;;;;;;;61.75;36.38;;;11.30;99.90;;;11.54;100.00;101894.47;5033288;28;20064;-69
2023/02/21 08:38:27;;;;;;;60.60;38.40;;;11.20;99.90;;;11.55;100.00;101893.63;5034056;28;20511;-69
2023/02/21 08:40:56;;;;;;;60.83;36.33;;;11.30;99.90;;;11.53;100.00;101887.41;5034083;28;20080;-68
2023/02/21 08:43:26;;;;;;;63.33;39.42;;;11.30;99.90;;;10.86;100.00;101768.53;5033918;28;20523;-68
2023/02/21 08:45:55;;;;;;;62.05;37.33;;;11.20;99.90;;;11.52;100.00;101893.56;5034164;28;20045;-68
2023/02/21 08:48:23;;;;;;;64.45;38.78;;;11.20;99.90;;;11.52;100.00;101887.38;5034112;28;20128;-68
2023/02/21 08:50:52;;;;;;;69.88;40.63;;;11.20;99.90;;;11.50;100.00;101891.78;5033920;28;20076;-69
2023/02/21 08:53:21;;;;;;;64.20;39.90;;;11.20;99.90;;;11.55;100.00;101890.06;5034012;28;20042;-69
2023/02/21 08:55:49;;;;;;;69.57;40.38;;;11.20;99.90;;;11.54;100.00;101883.88;5034090;28;20053;-69
2023/02/21 08:58:17;;;;;;;64.30;40.08;;;11.20;99.90;;;11.53;100.00;101882.13;5034333;28;20042;-69
2023/02/21 09:00:47;;;;;;;68.32;42.95;;;11.20;99.90;;;11.62;100.00;101887.47;5033823;28;20071;-69
2023/02/21 09:03:16;;;;;;;62.20;38.60;;;11.30;99.90;;;11.72;100.00;101883.16;5033820;28;20057;-70
2023/02/21 09:05:44;;;;;;;67.18;40.40;;;11.40;99.90;;;11.74;100.00;101882.31;5033847;28;20041;-69
2023/02/21 09:08:14;;;;;;;62.53;38.97;;;11.40;99.90;;;11.79;100.00;101880.56;5033610;28;20128;-68
2023/02/21 09:10:46;;;;;;;79.22;42.67;;;11.50;99.90;;;11.68;100.00;101874.31;5033524;28;20064;-70
2023/02/21 09:13:14;;;;;;;71.90;41.38;;;11.40;99.90;;;11.70;100.00;101874.31;5032472;28;20057;-69
2023/02/21 09:15:43;;;;;;;73.85;40.53;;;11.40;99.90;;;11.67;100.00;101869.88;5033516;28;20068;-70
2023/02/21 09:18:13;;;;;;;78.03;40.05;;;11.40;99.90;;;11.71;100.00;101884.06;5033563;28;20049;-71
2023/02/21 09:20:42;;;;;;;73.47;40.13;;;11.50;99.90;;;11.75;100.00;101883.16;5033354;28;20068;-69
2023/02/21 09:23:11;;;;;;;73.20;39.70;;;11.40;99.90;;;11.77;100.00;101874.34;5033645;28;20374;-68
2023/02/21 09:25:39;;;;;;;74.07;40.28;;;11.50;99.90;;;11.63;100.00;101865.38;5033705;28;20037;-67
2023/02/21 09:28:07;;;;;;;76.10;41.42;;;11.40;99.90;;;11.64;100.00;101871.56;5033635;28;20053;-67
2023/02/21 09:30:35;;;;;;;77.25;41.75;;;11.40;99.90;;;11.62;100.00;101875.97;5033159;28;20037;-67
2023/02/21 09:33:04;;;;;;;76.93;40.35;;;11.30;99.90;;;11.70;100.00;101872.56;5033269;28;20103;-67
2023/02/21 09:35:34;;;;;;;74.63;40.53;;;11.40;99.90;;;11.63;100.00;101881.28;5033117;28;20042;-67
2023/02/21 09:38:05;;;;;;;72.28;41.60;;;11.40;99.90;;;11.67;100.00;101872.53;5033662;28;20053;-67
2023/02/21 09:40:40;;;;;;;75.80;42.13;;;11.40;99.90;;;11.67;100.00;101869.00;5033202;28;20099;-67
2023/02/21 09:43:15;;;;;;;70.53;40.15;;;11.40;99.90;;;11.61;100.00;101867.13;5033037;28;20451;-66
2023/02/21 09:45:44;;;;;;;87.35;42.13;;;11.30;99.90;;;11.63;100.00;101861.88;5032294;28;20041;-66
2023/02/21 09:48:17;;;;;;;72.18;39.00;;;11.30;99.90;;;11.48;100.00;101862.63;5031991;28;20107;-65
2023/02/21 09:50:50;;;;;;;73.68;39.60;;;11.30;99.90;;;11.68;100.00;101873.41;5032672;28;20037;-65
2023/02/21 09:53:23;;;;;;;73.40;40.53;;;11.30;99.90;;;11.60;100.00;101864.47;5032241;28;20049;-66
2023/02/21 09:55:56;;;;;;;69.28;39.00;;;11.30;99.90;;;11.53;100.00;101866.22;5032620;28;20037;-67
2023/02/21 09:58:25;;;;;;;73.75;40.35;;;11.30;99.90;;;11.50;100.00;101868.81;5032647;28;20065;-66
2023/02/21 10:00:57;;;;;;;71.38;38.50;;;11.30;99.90;;;11.54;100.00;101864.44;5031606;28;20053;-66
2023/02/21 10:03:45;;;;;;;68.63;37.67;;;11.30;99.90;;;11.58;100.00;101864.47;5032648;28;20033;-66
2023/02/21 10:06:28;;;;;;;74.00;38.05;;;11.30;99.90;;;11.54;100.00;101867.97;5032656;28;20053;-67
2023/02/21 10:09:04;;;;;;;70.35;37.88;;;11.20;99.90;;;11.51;100.00;101857.38;5032767;28;20103;-67
2023/02/21 10:11:45;;;;;;;67.15;37.78;;;11.20;99.90;;;11.52;100.00;101867.06;5032460;28;20068;-67
2023/02/21 10:14:23;;;;;;;73.32;38.50;;;11.20;99.90;;;11.50;100.00;101863.53;5031297;28;20064;-67
2023/02/21 10:16:59;;;;;;;71.35;37.67;;;11.20;99.90;;;11.33;100.00;101857.22;5032361;28;20052;-67
2023/02/21 10:19:34;;;;;;;75.40;41.50;;;11.10;99.90;;;11.30;100.00;101853.66;5032304;28;20557;-67
2023/02/21 10:22:14;;;;;;;70.57;38.80;;;11.00;99.90;;;11.23;100.00;101855.34;5032318;28;20124;-67
2023/02/21 10:24:42;;;;;;;70.32;38.83;;;11.00;99.90;;;11.24;100.00;101862.44;5032245;28;20068;-67
2023/02/21 10:27:17;;;;;;;74.57;39.55;;;11.00;99.90;;;11.25;100.00;101858.91;5032336;28;20045;-67
2023/02/21 10:29:54;;;;;;;64.28;38.40;;;10.90;99.90;;;11.11;100.00;101841.13;5032093;28;20081;-67
2023/02/21 10:32:24;;;;;;;63.75;35.65;;;10.90;99.90;;;11.22;100.00;101858.00;5032629;28;20041;-67
2023/02/21 10:34:54;;;;;;;60.72;33.30;;;10.90;99.90;;;11.10;100.00;101844.63;5030924;28;20055;-67
2023/02/21 10:37:37;;;;;;;63.97;34.83;;;10.90;99.90;;;10.99;100.00;101822.47;5032286;28;20460;-67
2023/02/21 10:40:24;;;;;;;62.28;35.35;;;10.90;99.90;;;11.26;100.00;101859.81;5032263;28;20052;-67
2023/02/21 10:43:02;;;;;;;61.05;34.50;;;11.00;99.90;;;11.09;100.00;101835.78;5032267;28;20045;-67
2023/02/21 10:45:36;;;;;;;54.08;32.42;;;10.90;99.90;;;11.08;100.00;101828.75;5032026;28;20084;-67
2023/02/21 10:48:07;;;;;;;50.75;31.13;;;10.90;99.90;;;11.24;100.00;101858.91;5031886;28;20330;-67
2023/02/21 10:50:41;;;;;;;;;;;10.90;99.90;;;11.26;100.00;101841.25;5032178;28;20065;-67
2023/02/21 10:53:28;;;;;;;51.95;29.92;;;11.00;99.90;;;11.24;100.00;101857.16;5031927;28;20016;-67
2023/02/21 10:56:28;;;;;;;50.92;30.23;;;11.00;99.90;;;11.25;100.00;101856.25;5031839;28;20091;-67
2023/02/21 10:58:59;;;;;;;45.38;29.20;;;11.00;99.90;;;11.25;100.00;101848.31;5031662;28;20116;-67
2023/02/21 11:01:38;;;;;;;44.83;28.05;;;11.00;99.90;;;11.27;100.00;101849.22;5031978;28;20049;-67
2023/02/21 11:04:26;;;;;;;44.05;27.88;;;11.00;99.90;;;11.33;100.00;101846.63;5031814;28;20489;-69
2023/02/21 11:06:56;;;;;;;43.05;27.67;;;11.00;99.90;;;11.38;100.00;101851.97;5035496;28;20124;-69
2023/02/21 11:09:40;;;;;;;45.10;28.08;;;11.10;99.90;;;11.36;100.00;101846.63;5036111;28;20095;-70
2023/02/21 11:12:24;;;;;;;44.22;28.50;;;11.10;99.90;;;11.33;100.00;101846.63;5035818;28;20045;-70
2023/02/21 11:15:26;;;;;;;41.10;26.30;;;11.10;99.90;;;11.34;100.00;101836.91;5034618;28;20054;-70
2023/02/21 11:18:06;;;;;;;40.13;25.08;;;11.10;99.90;;;11.35;100.00;101841.31;4994147;28;20620;-70
2023/02/21 11:20:34;;;;;;;35.08;24.23;;;11.10;99.90;;;11.28;100.00;101832.47;4994169;28;20065;-70
2023/02/21 11:23:05;;;;;;;37.97;25.30;;;11.00;99.90;;;11.24;100.00;101833.31;5016734;28;20496;-69
2023/02/21 11:25:40;;;;;;;35.63;24.02;;;11.00;99.90;;;11.29;100.00;101836.88;5035580;28;20037;-70
2023/02/21 11:28:21;;;;;;;36.55;23.50;;;11.00;99.90;;;11.31;100.00;101820.97;5033903;28;20057;-70
2023/02/21 11:31:05;;;;;;;33.30;23.05;;;11.00;99.90;;;11.36;100.00;101825.44;5034342;28;20164;-70
2023/02/21 11:33:39;;;;;;;31.85;22.33;;;11.10;99.90;;;11.36;100.00;101817.50;5034229;28;20059;-70
2023/02/21 11:36:12;;;;;;;33.28;21.98;;;11.10;99.90;;;11.22;100.00;101799.72;5034307;28;20046;-70
2023/02/21 11:38:44;;;;;;;31.58;22.88;;;11.10;99.90;;;11.33;100.00;101806.88;5035681;28;20095;-68
2023/02/21 11:41:23;;;;;;;33.63;24.05;;;11.10;99.90;;;11.39;100.00;101820.19;5035675;28;20414;-67
2023/02/21 11:43:53;;;;;;;33.03;22.80;;;11.10;99.90;;;11.29;100.00;101809.50;5035519;28;20128;-67
2023/02/21 11:46:34;;;;;;;38.00;24.77;;;11.10;99.90;;;11.35;100.00;101807.78;5035289;28;20052;-67
2023/02/21 11:49:08;;;;;;;35.33;24.02;;;11.10;99.90;;;11.36;100.00;101798.09;5035284;28;20132;-67
2023/02/21 11:51:43;;;;;;;34.03;24.08;;;11.10;99.90;;;11.49;100.00;101802.59;5035187;28;20041;-67
2023/02/21 11:54:12;;;;;;;38.10;24.17;;;11.20;99.90;;;11.52;100.00;101806.13;5035197;28;20124;-67
2023/02/21 11:56:51;;;;;;;35.90;23.95;;;11.20;99.90;;;11.42;100.00;101801.66;5035228;28;20045;-70
2023/02/21 11:59:34;;;;;;;37.85;24.85;;;11.20;99.90;;;11.51;100.00;101793.78;5035018;28;20559;-69
2023/02/21 12:02:43;;;;;;;34.30;24.15;;;11.20;99.90;;;11.46;100.00;101798.16;5035126;28;20063;-69
2023/02/21 12:05:32;;;;;;;34.88;23.38;;;11.20;99.90;;;11.52;100.00;101800.84;5035338;28;20087;-69
2023/02/21 12:08:26;;;;;;;38.35;25.42;;;11.20;99.90;;;11.53;100.00;101797.31;5033724;28;20092;-70
2023/02/21 12:11:08;;;;;;;36.40;24.40;;;11.20;99.90;;;11.46;100.00;101790.19;5035369;28;20123;-70
2023/02/21 12:13:50;;;;;;;35.22;23.63;;;11.20;99.90;;;11.50;100.00;101801.69;5033681;28;20099;-69
2023/02/21 12:16:32;;;;;;;32.83;23.23;;;11.20;99.90;;;11.54;100.00;101785.84;5034617;28;20060;-69
2023/02/21 12:19:17;;;;;;;35.35;23.38;;;11.30;99.90;;;11.49;100.00;101790.22;5034824;28;20041;-69
2023/02/21 12:22:01;;;;;;;34.97;21.00;;;11.20;99.90;;;11.55;100.00;101786.72;5034764;28;20049;-69
2023/02/21 12:24:54;;;;;;;31.17;20.63;;;11.30;99.90;;;11.41;100.00;101776.03;5034571;28;20124;-69
2023/02/21 12:27:34;;;;;;;30.55;20.98;;;11.20;99.90;;;11.43;100.00;101776.03;5034554;28;20092;-70
2023/02/21 12:30:37;;;;;;;34.08;21.15;;;11.10;99.90;;;11.45;100.00;101779.59;5034463;28;20073;-69
2023/02/21 12:33:23;;;;;;;33.10;21.60;;;11.20;99.90;;;11.35;100.00;101773.34;5027440;28;20140;-70
2023/02/21 12:36:25;;;;;;;27.98;18.90;;;11.10;99.90;;;11.39;100.00;101766.31;5034165;28;20143;-68